createdAt,value
2019-04-05T00:00:47.919Z,7.07
2019-04-05T00:03:17.778Z,6.23
2019-04-05T00:05:47.601Z,6.93
2019-04-05T00:08:17.444Z,5.57
2019-04-05T00:10:47.286Z,6.10
2019-04-05T00:13:17.121Z,5.50
2019-04-05T00:15:46.929Z,5.97
2019-04-05T00:18:16.905Z,5.27
2019-04-05T00:20:46.778Z,6.07
2019-04-05T00:23:16.698Z,5.57
2019-04-05T00:25:46.475Z,5.77
2019-04-05T00:28:16.361Z,6.83
2019-04-05T00:30:46.338Z,6.27
2019-04-05T00:33:16.160Z,5.53
2019-04-05T00:35:45.969Z,6.10
2019-04-05T00:38:16.511Z,6.30
2019-04-05T00:40:46.461Z,5.93
2019-04-05T00:43:16.378Z,7.53
2019-04-05T00:45:46.369Z,6.03
2019-04-05T00:48:16.271Z,5.67
2019-04-05T00:50:46.330Z,5.57
2019-04-05T00:53:16.112Z,5.53
2019-04-05T00:55:45.954Z,6.20
2019-04-05T00:58:15.810Z,5.83
2019-04-05T01:00:45.621Z,6.07
2019-04-05T01:03:15.516Z,6.57
2019-04-05T01:05:45.371Z,6.53
2019-04-05T01:08:15.194Z,5.23
2019-04-05T01:10:46.198Z,4.83
2019-04-05T01:13:16.029Z,5.37
2019-04-05T01:15:45.810Z,6.50
2019-04-05T01:18:15.765Z,5.13
2019-04-05T01:20:48.725Z,4.43
2019-04-05T01:23:18.688Z,5.37
2019-04-05T01:25:48.914Z,6.50
2019-04-05T01:28:19.359Z,5.70
2019-04-05T01:30:49.170Z,6.07
2019-04-05T01:33:19.072Z,5.47
2019-04-05T01:35:48.840Z,8.53
2019-04-05T01:38:19.620Z,4.90
2019-04-05T01:40:49.507Z,5.90
2019-04-05T01:43:19.404Z,6.80
2019-04-05T01:45:53.983Z,6.17
2019-04-05T01:48:20.948Z,4.77
2019-04-05T01:50:50.871Z,4.70
2019-04-05T01:53:21.026Z,7.10
2019-04-05T01:55:50.793Z,5.33
2019-04-05T01:58:20.775Z,6.40
2019-04-05T02:00:50.551Z,5.77
2019-04-05T02:03:20.378Z,6.90
2019-04-05T02:05:50.376Z,6.67
2019-04-05T02:08:20.310Z,5.83
2019-04-05T02:10:50.181Z,5.70
2019-04-05T02:13:20.073Z,5.73
2019-04-05T02:15:49.979Z,5.23
2019-04-05T02:18:19.843Z,7.17
2019-04-05T02:20:49.591Z,5.40
2019-04-05T02:23:19.588Z,10.40
2019-04-05T02:25:49.376Z,7.03
2019-04-05T02:28:20.115Z,6.63
2019-04-05T02:30:50.024Z,4.40
2019-04-05T02:33:20.056Z,6.47
2019-04-05T02:35:50.960Z,5.90
2019-04-05T02:38:20.881Z,6.93
2019-04-05T02:40:53.319Z,5.47
2019-04-05T02:43:26.238Z,5.73
2019-04-05T02:45:56.850Z,11.10
2019-04-05T02:48:30.390Z,6.73
2019-04-05T02:51:03.953Z,5.70
2019-04-05T02:53:36.556Z,5.40
2019-04-05T02:56:07.503Z,8.80
2019-04-05T02:58:38.259Z,7.23
2019-04-05T03:01:09.337Z,9.17
2019-04-05T03:03:40.100Z,7.17
2019-04-05T03:06:10.411Z,7.77
2019-04-05T03:08:41.914Z,7.60
2019-04-05T03:11:16.913Z,6.70
2019-04-05T03:13:51.926Z,7.03
2019-04-05T03:16:39.515Z,7.80
2019-04-05T03:19:08.079Z,16.17
2019-04-05T03:21:41.061Z,7.20
2019-04-05T03:24:14.004Z,8.40
2019-04-05T03:26:46.895Z,6.67
2019-04-05T03:29:16.987Z,7.70
2019-04-05T03:31:46.936Z,7.07
2019-04-05T03:34:17.108Z,8.33
2019-04-05T03:36:47.442Z,9.67
2019-04-05T03:39:17.384Z,8.23
2019-04-05T03:41:47.326Z,8.93
2019-04-05T03:44:17.364Z,8.27
2019-04-05T03:46:56.224Z,10.90
2019-04-05T03:49:18.829Z,7.47
2019-04-05T03:51:48.591Z,8.77
2019-04-05T03:54:18.430Z,7.60
2019-04-05T03:56:48.526Z,6.53
2019-04-05T03:59:18.404Z,9.20
2019-04-05T04:01:49.205Z,9.63
2019-04-05T04:04:19.161Z,9.20
2019-04-05T04:06:49.214Z,8.80
2019-04-05T04:09:19.470Z,11.93
2019-04-05T04:11:50.124Z,9.27
2019-04-05T04:14:20.011Z,9.40
2019-04-05T04:16:50.031Z,7.90
2019-04-05T04:19:20.001Z,8.87
2019-04-05T04:21:52.953Z,6.87
2019-04-05T04:24:22.929Z,9.13
2019-04-05T04:26:53.174Z,8.53
2019-04-05T04:29:23.287Z,8.40
2019-04-05T04:31:53.126Z,8.47
2019-04-05T04:34:23.321Z,9.97
2019-04-05T04:36:53.986Z,7.87
2019-04-05T04:39:23.891Z,8.43
2019-04-05T04:41:54.002Z,9.87
2019-04-05T04:44:24.040Z,13.37
2019-04-05T04:46:54.129Z,8.37
2019-04-05T04:49:24.097Z,11.93
2019-04-05T04:51:54.363Z,12.10
2019-04-05T04:54:24.327Z,8.17
2019-04-05T04:56:55.141Z,8.80
2019-04-05T04:59:25.029Z,10.13
2019-04-05T05:01:54.928Z,12.27
2019-04-05T05:04:26.314Z,10.33
2019-04-05T05:06:56.277Z,9.10
2019-04-05T05:09:26.529Z,11.63
2019-04-05T05:11:56.350Z,12.77
2019-04-05T05:14:26.852Z,10.73
2019-04-05T05:16:56.957Z,11.03
2019-04-05T05:19:27.046Z,10.77
2019-04-05T05:21:56.821Z,12.83
2019-04-05T05:24:26.801Z,8.63
2019-04-05T05:26:57.174Z,9.97
2019-04-05T05:29:27.176Z,9.13
2019-04-05T05:31:57.252Z,9.43
2019-04-05T05:34:27.234Z,11.43
2019-04-05T05:36:57.291Z,10.30
2019-04-05T05:39:27.131Z,9.30
2019-04-05T05:41:57.201Z,9.63
2019-04-05T05:44:27.206Z,11.50
2019-04-05T05:46:57.116Z,15.20
2019-04-05T05:49:27.049Z,16.60
2019-04-05T05:51:57.409Z,13.33
2019-04-05T05:54:27.275Z,11.33
2019-04-05T05:56:57.135Z,12.20
2019-04-05T05:59:27.799Z,11.10
2019-04-05T06:01:58.705Z,13.37
2019-04-05T06:04:28.929Z,16.93
2019-04-05T06:06:58.750Z,12.20
2019-04-05T06:09:28.848Z,10.43
2019-04-05T06:11:58.914Z,10.50
2019-04-05T06:14:29.693Z,11.57
2019-04-05T06:16:59.602Z,14.20
2019-04-05T06:19:29.419Z,15.17
2019-04-05T06:21:59.965Z,11.80
2019-04-05T06:24:30.050Z,14.23
2019-04-05T06:27:00.196Z,12.30
2019-04-05T06:29:30.057Z,9.97
2019-04-05T06:32:00.030Z,15.00
2019-04-05T06:34:30.100Z,13.07
2019-04-05T06:37:01.251Z,11.47
2019-04-05T06:39:31.141Z,14.20
2019-04-05T06:42:01.229Z,14.17
2019-04-05T06:44:31.218Z,12.27
2019-04-05T06:47:01.214Z,13.10
2019-04-05T06:49:31.681Z,14.97
2019-04-05T06:52:01.707Z,20.07
2019-04-05T06:54:31.676Z,13.73
2019-04-05T06:57:01.506Z,11.10
2019-04-05T06:59:31.324Z,13.20
2019-04-05T07:02:01.140Z,13.90
2019-04-05T07:04:31.297Z,11.90
2019-04-05T07:07:01.174Z,8.93
2019-04-05T07:09:33.932Z,13.17
2019-04-05T07:12:02.958Z,14.43
2019-04-05T07:14:33.061Z,9.47
2019-04-05T07:17:02.971Z,10.43
2019-04-05T07:19:32.802Z,9.53
2019-04-05T07:22:02.718Z,11.50
2019-04-05T07:24:32.601Z,9.37
2019-04-05T07:27:02.610Z,10.50
2019-04-05T07:29:32.559Z,16.63
2019-04-05T07:32:02.458Z,11.70
2019-04-05T07:34:33.008Z,10.70
2019-04-05T07:37:02.984Z,9.87
2019-04-05T07:39:32.809Z,12.97
2019-04-05T07:42:02.946Z,11.07
2019-04-05T07:44:32.769Z,14.17
2019-04-05T07:47:02.620Z,10.13
2019-04-05T07:49:33.506Z,11.50
2019-04-05T07:52:03.338Z,16.70
2019-04-05T07:54:33.342Z,15.37
2019-04-05T07:57:03.186Z,15.07
2019-04-05T07:59:33.182Z,11.97
2019-04-05T08:02:04.190Z,13.63
2019-04-05T08:04:34.014Z,15.03
2019-04-05T08:07:05.045Z,22.53
2019-04-05T08:09:37.259Z,11.73
2019-04-05T08:12:07.930Z,15.33
2019-04-05T08:14:39.457Z,15.80
2019-04-05T08:17:09.307Z,16.30
2019-04-05T08:19:40.086Z,12.37
2019-04-05T08:22:10.034Z,15.13
2019-04-05T08:24:40.544Z,16.97
2019-04-05T08:27:10.720Z,17.50
2019-04-05T08:29:40.551Z,16.60
2019-04-05T08:32:14.680Z,13.77
2019-04-05T08:34:43.199Z,18.30
2019-04-05T08:37:13.085Z,18.30
2019-04-05T08:39:42.955Z,18.40
2019-04-05T08:42:12.952Z,19.13
2019-04-05T08:44:42.821Z,20.17
2019-04-05T08:47:13.727Z,15.50
2019-04-05T08:49:43.626Z,20.27
2019-04-05T08:52:13.466Z,21.67
2019-04-05T08:54:43.373Z,18.13
2019-04-05T08:57:13.284Z,12.73
2019-04-05T08:59:43.208Z,18.27
2019-04-05T09:02:13.110Z,21.07
2019-04-05T09:04:43.014Z,100.73
2019-04-05T09:07:12.865Z,29.97
2019-04-05T09:09:42.721Z,20.53
2019-04-05T09:12:12.570Z,16.47
2019-04-05T09:14:42.434Z,20.30
2019-04-05T09:17:12.257Z,28.63
2019-04-05T09:19:42.174Z,13.53
2019-04-05T09:22:12.080Z,16.60
2019-04-05T09:24:41.918Z,14.73
2019-04-05T09:27:11.749Z,17.87
2019-04-05T09:29:41.634Z,14.83
2019-04-05T09:32:12.225Z,22.03
2019-04-05T09:34:42.120Z,17.50
2019-04-05T09:37:12.112Z,14.23
2019-04-05T09:39:43.642Z,16.93
2019-04-05T09:42:13.611Z,13.87
2019-04-05T09:44:43.469Z,15.90
2019-04-05T09:47:13.414Z,15.53
2019-04-05T09:49:43.419Z,12.50
2019-04-05T09:52:13.309Z,14.20
2019-04-05T09:54:44.001Z,16.17
2019-04-05T09:57:13.878Z,16.13
2019-04-05T09:59:43.896Z,21.07
2019-04-05T10:02:13.767Z,14.53
2019-04-05T10:04:43.702Z,125.00
2019-04-05T10:07:13.530Z,11.87
2019-04-05T10:09:43.420Z,20.70
2019-04-05T10:12:13.444Z,16.00
2019-04-05T10:14:44.061Z,36.50
2019-04-05T10:17:13.979Z,14.53
2019-04-05T10:19:50.314Z,20.33
2019-04-05T10:22:16.257Z,24.87
2019-04-05T10:24:46.175Z,19.80
2019-04-05T10:27:16.002Z,22.37
2019-04-05T10:29:45.867Z,18.27
2019-04-05T10:32:15.755Z,14.10
2019-04-05T10:34:45.751Z,12.37
2019-04-05T10:37:16.613Z,14.53
2019-04-05T10:39:47.196Z,17.03
2019-04-05T10:42:25.749Z,17.33
2019-04-05T10:44:55.727Z,31.63
2019-04-05T10:47:25.585Z,16.67
2019-04-05T10:50:02.977Z,35.77
2019-04-05T10:52:27.845Z,20.53
2019-04-05T10:54:58.142Z,23.20
2019-04-05T10:57:28.070Z,213.47
2019-04-05T10:59:58.598Z,26.67
2019-04-05T11:02:28.506Z,15.40
2019-04-05T11:04:58.429Z,16.17
2019-04-05T11:07:28.341Z,14.00
2019-04-05T11:09:58.373Z,17.10
2019-04-05T11:12:28.211Z,16.60
2019-04-05T11:14:58.024Z,16.33
2019-04-05T11:17:27.950Z,15.30
2019-04-05T11:19:57.822Z,15.03
2019-04-05T11:22:27.806Z,14.03
2019-04-05T11:24:57.665Z,15.50
2019-04-05T11:27:27.534Z,14.27
2019-04-05T11:29:58.128Z,17.67
2019-04-05T11:32:28.856Z,14.40
2019-04-05T11:34:58.859Z,18.57
2019-04-05T11:37:29.318Z,13.10
2019-04-05T11:39:59.360Z,13.40
2019-04-05T11:42:32.944Z,13.93
2019-04-05T11:45:02.787Z,14.27
2019-04-05T11:47:32.887Z,22.00
2019-04-05T11:50:03.675Z,15.80
2019-04-05T11:52:33.570Z,19.53
2019-04-05T11:55:04.714Z,12.63
2019-04-05T11:57:34.635Z,17.33
2019-04-05T12:00:12.997Z,15.87
2019-04-05T12:02:47.291Z,13.70
2019-04-05T12:05:17.965Z,15.53
2019-04-05T12:07:48.606Z,14.70
2019-04-05T12:10:19.654Z,12.67
2019-04-05T12:12:50.254Z,15.37
2019-04-05T12:15:20.105Z,13.93
2019-04-05T12:17:50.089Z,13.33
2019-04-05T12:20:20.113Z,13.03
2019-04-05T12:22:52.439Z,12.53
2019-04-05T12:25:23.253Z,15.13
2019-04-05T12:28:05.216Z,13.37
2019-04-05T12:30:25.805Z,12.53
2019-04-05T12:32:55.642Z,12.43
2019-04-05T12:35:26.406Z,12.57
2019-04-05T12:37:56.287Z,12.47
2019-04-05T12:40:26.152Z,11.43
2019-04-05T12:42:56.161Z,12.33
2019-04-05T12:45:26.070Z,13.53
2019-04-05T12:47:58.979Z,14.63
2019-04-05T12:50:27.906Z,15.67
2019-04-05T12:52:57.849Z,14.10
2019-04-05T12:55:27.991Z,11.83
2019-04-05T12:57:57.961Z,12.00
2019-04-05T13:00:28.179Z,10.83
2019-04-05T13:02:58.309Z,13.63
2019-04-05T13:05:29.177Z,11.13
2019-04-05T13:07:59.272Z,14.77
2019-04-05T13:10:30.551Z,14.03
2019-04-05T13:13:01.579Z,10.97
2019-04-05T13:15:32.158Z,12.70
2019-04-05T13:18:02.153Z,13.57
2019-04-05T13:20:32.022Z,13.37
2019-04-05T13:23:06.274Z,11.60
2019-04-05T13:25:34.477Z,11.37
2019-04-05T13:28:13.285Z,15.67
2019-04-05T13:30:35.890Z,18.13
2019-04-05T13:33:05.814Z,16.27
2019-04-05T13:35:35.813Z,13.50
2019-04-05T13:38:05.927Z,9.63
2019-04-05T13:40:35.817Z,9.80
2019-04-05T13:43:05.776Z,10.97
2019-04-05T13:45:35.842Z,11.87
2019-04-05T13:48:08.413Z,16.17
2019-04-05T13:50:37.340Z,14.90
2019-04-05T13:53:07.243Z,12.80
2019-04-05T13:55:38.515Z,19.57
2019-04-05T13:58:11.185Z,13.30
2019-04-05T14:00:40.436Z,13.80
2019-04-05T14:03:10.326Z,12.03
2019-04-05T14:05:40.163Z,13.93
2019-04-05T14:08:10.997Z,11.03
2019-04-05T14:10:41.938Z,12.27
2019-04-05T14:13:11.822Z,11.57
2019-04-05T14:15:42.249Z,12.70
2019-04-05T14:18:15.279Z,12.17
2019-04-05T14:20:44.534Z,12.07
2019-04-05T14:23:14.357Z,10.97
2019-04-05T14:25:44.478Z,12.90
2019-04-05T14:28:14.518Z,10.57
2019-04-05T14:30:45.146Z,11.43
2019-04-05T14:33:15.214Z,11.33
2019-04-05T14:35:45.481Z,13.63
2019-04-05T14:38:15.441Z,10.13
2019-04-05T14:40:58.118Z,12.30
2019-04-05T14:43:27.934Z,12.30
2019-04-05T14:45:57.724Z,12.23
2019-04-05T14:48:30.234Z,11.20
2019-04-05T14:50:59.751Z,11.03
2019-04-05T14:53:32.383Z,11.70
2019-04-05T14:56:02.173Z,11.47
2019-04-05T14:58:31.953Z,12.03
2019-04-05T15:01:01.751Z,10.10
2019-04-05T15:03:31.747Z,13.67
2019-04-05T15:06:02.353Z,11.37
2019-04-05T15:08:32.129Z,10.87
2019-04-05T15:11:02.382Z,11.90
2019-04-05T15:13:32.294Z,11.97
2019-04-05T15:16:02.813Z,11.40
2019-04-05T15:18:32.671Z,14.03
2019-04-05T15:21:05.479Z,11.60
2019-04-05T15:23:33.989Z,12.00
2019-04-05T15:26:04.045Z,11.77
2019-04-05T15:28:33.825Z,11.37
2019-04-05T15:31:03.645Z,11.63
2019-04-05T15:33:33.528Z,12.23
2019-04-05T15:36:03.430Z,11.80
2019-04-05T15:38:33.341Z,13.67
2019-04-05T15:41:03.393Z,12.33
2019-04-05T15:43:33.285Z,12.77
2019-04-05T15:46:03.390Z,10.80
2019-04-05T15:48:34.199Z,15.27
2019-04-05T15:51:04.094Z,12.40
2019-04-05T15:53:33.877Z,11.83
2019-04-05T15:56:04.392Z,11.47
2019-04-05T15:58:35.309Z,15.17
2019-04-05T16:01:05.266Z,13.70
2019-04-05T16:03:36.943Z,12.53
2019-04-05T16:06:07.414Z,11.40
2019-04-05T16:08:38.168Z,11.30
2019-04-05T16:11:08.049Z,9.07
2019-04-05T16:13:37.928Z,10.23
2019-04-05T16:16:07.710Z,11.23
2019-04-05T16:18:37.953Z,16.50
2019-04-05T16:21:07.840Z,13.90
2019-04-05T16:23:38.368Z,11.80
2019-04-05T16:26:08.307Z,11.27
2019-04-05T16:28:41.029Z,13.10
2019-04-05T16:31:10.414Z,13.37
2019-04-05T16:33:40.225Z,10.33
2019-04-05T16:36:10.006Z,11.03
2019-04-05T16:38:39.990Z,11.90
2019-04-05T16:41:09.765Z,11.63
2019-04-05T16:43:39.566Z,11.97
2019-04-05T16:46:09.589Z,10.30
2019-04-05T16:48:39.375Z,10.07
2019-04-05T16:51:09.153Z,11.73
2019-04-05T16:53:40.782Z,17.80
2019-04-05T16:56:10.636Z,12.87
2019-04-05T16:58:40.465Z,9.93
2019-04-05T17:01:10.238Z,12.63
2019-04-05T17:03:40.205Z,9.17
2019-04-05T17:06:10.013Z,10.80
2019-04-05T17:08:39.829Z,10.90
2019-04-05T17:11:09.652Z,9.63
2019-04-05T17:13:39.661Z,11.00
2019-04-05T17:16:09.558Z,8.53
2019-04-05T17:18:39.368Z,9.43
2019-04-05T17:21:09.165Z,8.67
2019-04-05T17:23:38.929Z,8.30
2019-04-05T17:26:08.951Z,10.33
2019-04-05T17:28:38.745Z,9.93
2019-04-05T17:31:08.513Z,10.87
2019-04-05T17:33:38.489Z,9.13
2019-04-05T17:36:09.362Z,10.87
2019-04-05T17:38:39.379Z,12.50
2019-04-05T17:41:09.417Z,9.20
2019-04-05T17:43:39.414Z,8.57
2019-04-05T17:46:09.319Z,9.77
2019-04-05T17:48:39.202Z,10.63
2019-04-05T17:51:09.081Z,9.70
2019-04-05T17:53:39.253Z,10.47
2019-04-05T17:56:09.395Z,8.70
2019-04-05T17:58:39.758Z,12.33
2019-04-05T18:01:09.600Z,10.90
2019-04-05T18:03:40.202Z,10.47
2019-04-05T18:06:10.102Z,9.90
2019-04-05T18:08:39.982Z,11.27
2019-04-05T18:11:09.798Z,13.77
2019-04-05T18:13:39.658Z,14.93
2019-04-05T18:16:09.432Z,23.73
2019-04-05T18:18:39.217Z,27.57
2019-04-05T18:21:09.109Z,36.93
2019-04-05T18:23:38.946Z,41.60
2019-04-05T18:26:08.925Z,56.67
2019-04-05T18:28:38.713Z,54.80
2019-04-05T18:31:08.665Z,60.07
2019-04-05T18:33:38.561Z,54.83
2019-04-05T18:36:08.390Z,48.47
2019-04-05T18:38:38.512Z,54.43
2019-04-05T18:41:08.395Z,64.60
2019-04-05T18:43:38.209Z,56.30
2019-04-05T18:46:08.033Z,55.97
2019-04-05T18:48:37.824Z,66.77
2019-04-05T18:51:07.657Z,59.87
2019-04-05T18:53:38.262Z,56.63
2019-04-05T18:56:09.178Z,66.03
2019-04-05T18:58:39.170Z,59.43
2019-04-05T19:01:09.007Z,63.80
2019-04-05T19:03:39.556Z,65.30
2019-04-05T19:06:09.402Z,58.53
2019-04-05T19:08:40.207Z,56.20
2019-04-05T19:11:10.132Z,71.57
2019-04-05T19:13:39.914Z,69.37
2019-04-05T19:16:09.817Z,65.83
2019-04-05T19:18:39.654Z,58.57
2019-04-05T19:21:10.397Z,61.73
2019-04-05T19:23:50.227Z,53.50
2019-04-05T19:26:12.169Z,57.33
2019-04-05T19:28:41.966Z,49.70
2019-04-05T19:48:54.362Z,58.07
2019-04-05T19:51:24.419Z,58.80
2019-04-05T19:54:01.053Z,53.77
2019-04-05T19:56:25.830Z,49.63
2019-04-05T19:58:55.661Z,51.43
2019-04-05T20:01:25.503Z,51.50
2019-04-05T20:03:55.401Z,57.03
2019-04-05T20:06:25.485Z,53.10
2019-04-05T20:08:55.460Z,42.60
2019-04-05T20:11:25.301Z,49.17
2019-04-05T20:13:55.187Z,48.00
2019-04-05T20:16:25.269Z,49.33
2019-04-05T20:18:55.136Z,53.83
2019-04-05T20:21:24.966Z,40.10
2019-04-05T20:23:54.817Z,52.77
2019-04-05T20:26:24.750Z,48.57
2019-04-05T20:28:54.534Z,47.23
2019-04-05T20:31:24.321Z,48.03
2019-04-05T20:33:54.387Z,52.87
2019-04-05T20:36:24.174Z,45.57
2019-04-05T20:38:54.028Z,46.40
2019-04-05T20:41:24.009Z,52.80
2019-04-05T20:43:53.789Z,52.10
2019-04-05T20:46:23.622Z,46.43
2019-04-05T20:48:53.530Z,52.57
2019-04-05T20:51:24.272Z,47.87
2019-04-05T20:53:54.392Z,40.60
2019-04-05T20:56:24.314Z,42.70
2019-04-05T20:58:54.093Z,38.40
2019-04-05T21:01:24.393Z,44.20
2019-04-05T21:03:54.461Z,42.10
2019-04-05T21:06:24.357Z,40.17
2019-04-05T21:08:54.146Z,43.07
2019-04-05T21:11:23.968Z,36.87
2019-04-05T21:13:53.789Z,35.17
2019-04-05T21:16:23.585Z,31.40
2019-04-05T21:18:53.414Z,29.53
2019-04-05T21:21:23.377Z,41.03
2019-04-05T21:23:54.138Z,33.57
2019-04-05T21:26:23.944Z,31.33
2019-04-05T21:28:53.729Z,37.67
2019-04-05T21:31:23.514Z,35.00
2019-04-05T21:33:53.522Z,40.03
2019-04-05T21:36:23.430Z,37.60
2019-04-05T21:38:53.212Z,36.40
2019-04-05T21:41:23.119Z,35.87
2019-04-05T21:43:52.914Z,32.77
2019-04-05T21:46:23.108Z,31.53
2019-04-05T21:48:52.942Z,38.27
2019-04-05T21:51:24.653Z,36.03
2019-04-05T21:53:54.993Z,37.67
2019-04-05T21:56:24.886Z,30.30
2019-04-05T21:58:54.684Z,38.93
2019-04-05T22:01:26.834Z,31.17
2019-04-05T22:03:57.538Z,30.73
2019-04-05T22:06:27.321Z,33.67
2019-04-05T22:08:57.101Z,24.90
2019-04-05T22:11:27.883Z,32.53
2019-04-05T22:13:57.812Z,32.60
2019-04-05T22:16:28.095Z,35.33
2019-04-05T22:18:57.874Z,35.60
2019-04-05T22:21:27.694Z,35.43
2019-04-05T22:23:57.525Z,31.93
2019-04-05T22:26:27.353Z,34.20
2019-04-05T22:28:57.186Z,28.93
2019-04-05T22:31:27.012Z,34.07
2019-04-05T22:33:56.921Z,31.97
2019-04-05T22:36:26.703Z,33.67
2019-04-05T22:38:56.485Z,28.60
2019-04-05T22:41:26.545Z,27.27
2019-04-05T22:43:56.335Z,25.73
2019-04-05T22:46:26.145Z,25.57
2019-04-05T22:48:56.188Z,27.23
2019-04-05T22:51:26.002Z,28.33
2019-04-05T22:53:55.974Z,25.07
2019-04-05T22:56:25.812Z,26.93
2019-04-05T22:58:55.746Z,28.70
2019-04-05T23:01:25.648Z,24.03
2019-04-05T23:03:55.472Z,30.30
2019-04-05T23:06:25.292Z,27.40
2019-04-05T23:08:55.217Z,24.50
2019-04-05T23:11:25.070Z,30.70
2019-04-05T23:13:54.935Z,23.83
2019-04-05T23:16:24.798Z,27.17
2019-04-05T23:18:54.630Z,30.47
2019-04-05T23:21:24.570Z,25.13
2019-04-05T23:23:54.565Z,25.87
2019-04-05T23:26:24.393Z,27.00
2019-04-05T23:28:55.017Z,27.33
2019-04-05T23:31:24.841Z,25.77
2019-04-05T23:33:54.733Z,23.87
2019-04-05T23:36:24.588Z,25.30
2019-04-05T23:38:54.766Z,23.03
2019-04-05T23:41:24.570Z,29.67
2019-04-05T23:43:54.400Z,22.40
2019-04-05T23:46:24.365Z,28.67
2019-04-05T23:48:54.191Z,25.40
2019-04-05T23:51:24.183Z,33.77
2019-04-05T23:53:54.236Z,26.00
2019-04-05T23:56:24.732Z,28.33
2019-04-05T23:58:54.567Z,30.10
